Time;durP1;ratioP1;P1;durP2;ratioP2;P2;SDS_P1;SDS_P2;PMS_P1;PMS_P2;Temp;Humidity;BMP_temperature;BMP_pressure;BME280_temperature;BME280_humidity;BME280_pressure;Samples;Min_cycle;Max_cycle;Signal;HPM_P1;HPM_P2
2021/04/29 00:00:15;0.00;0.00;0.62;0.00;0.00;0.62;2.40;2.20;;;26.80;20.00;;;;;;2269955;61;20354;-69
2021/04/29 00:02:44;0.00;0.00;0.62;0.00;0.00;0.62;2.70;2.40;;;26.80;20.00;;;;;;2269164;61;20381;-65
2021/04/29 00:05:14;0.00;0.00;0.62;0.00;0.00;0.62;3.43;2.70;;;26.80;20.00;;;;;;2269813;61;20350;-69
2021/04/29 00:07:42;0.00;0.00;0.62;0.00;0.00;0.62;3.23;2.40;;;26.80;20.00;;;;;;2269916;61;20584;-66
2021/04/29 00:10:12;0.00;0.00;0.62;0.00;0.00;0.62;3.13;2.83;;;26.70;19.90;;;;;;2269424;61;20575;-68
2021/04/29 00:12:39;0.00;0.00;0.62;0.00;0.00;0.62;2.60;2.30;;;26.70;19.90;;;;;;2269645;61;20357;-67
2021/04/29 00:15:08;0.00;0.00;0.62;0.00;0.00;0.62;2.80;2.53;;;26.70;19.90;;;;;;2269708;61;20722;-65
2021/04/29 00:17:34;0.00;0.00;0.62;0.00;0.00;0.62;2.90;2.60;;;26.70;19.90;;;;;;2269229;61;20777;-65
2021/04/29 00:20:01;0.00;0.00;0.62;0.00;0.00;0.62;3.97;3.30;;;26.70;19.90;;;;;;2269784;61;20354;-68
2021/04/29 00:22:29;0.00;0.00;0.62;0.00;0.00;0.62;3.57;3.27;;;26.70;19.90;;;;;;2269501;61;20397;-67
2021/04/29 00:24:55;0.00;0.00;0.62;0.00;0.00;0.62;3.07;2.80;;;26.70;19.90;;;;;;2269429;61;20377;-68
2021/04/29 00:27:22;0.00;0.00;0.62;0.00;0.00;0.62;3.50;2.60;;;26.70;19.90;;;;;;2269762;61;20382;-70
2021/04/29 00:29:48;0.00;0.00;0.62;0.00;0.00;0.62;3.07;2.77;;;26.60;19.90;;;;;;2269816;61;20365;-68
2021/04/29 00:32:15;0.00;0.00;0.62;0.00;0.00;0.62;3.03;2.73;;;26.60;19.90;;;;;;2269108;61;20581;-66
2021/04/29 00:34:41;0.00;0.00;0.62;0.00;0.00;0.62;4.00;2.83;;;26.60;19.90;;;;;;2269659;61;20701;-68
2021/04/29 00:37:08;0.00;0.00;0.62;0.00;0.00;0.62;3.50;3.20;;;26.60;19.90;;;;;;2269810;61;20354;-67
2021/04/29 00:39:35;0.00;0.00;0.62;0.00;0.00;0.62;3.70;3.23;;;26.60;19.90;;;;;;2269140;61;20357;-68
2021/04/29 00:42:02;0.00;0.00;0.62;0.00;0.00;0.62;3.70;2.77;;;26.60;19.90;;;;;;2269418;61;20400;-67
2021/04/29 00:44:28;0.00;0.00;0.62;0.00;0.00;0.62;3.87;3.03;;;26.60;19.90;;;;;;2269251;61;20373;-66
2021/04/29 00:46:57;0.00;0.00;0.62;0.00;0.00;0.62;3.13;2.83;;;26.60;19.90;;;;;;2269264;61;20567;-66
2021/04/29 00:49:24;0.00;0.00;0.62;0.00;0.00;0.62;3.17;2.87;;;26.50;19.90;;;;;;2269568;61;20360;-66
2021/04/29 00:51:50;0.00;0.00;0.62;0.00;0.00;0.62;4.10;3.20;;;26.50;19.80;;;;;;2269702;61;20350;-67
2021/04/29 00:54:17;0.00;0.00;0.62;0.00;0.00;0.62;3.53;3.10;;;26.50;19.80;;;;;;2269050;61;20795;-67
2021/04/29 00:56:45;0.00;0.00;0.62;0.00;0.00;0.62;4.20;3.33;;;26.50;19.80;;;;;;2269464;61;20402;-67
2021/04/29 00:59:11;0.00;0.00;0.62;0.00;0.00;0.62;3.13;2.70;;;26.50;19.80;;;;;;2269633;61;20354;-66
2021/04/29 01:01:39;0.00;0.00;0.62;0.00;0.00;0.62;3.17;2.87;;;26.50;19.90;;;;;;2268984;61;20378;-68
2021/04/29 01:04:15;0.00;0.00;0.62;0.00;0.00;0.62;4.10;3.20;;;26.50;19.90;;;;;;2269036;61;20395;-65
2021/04/29 01:06:47;0.00;0.00;0.62;0.00;0.00;0.62;4.00;3.10;;;26.50;19.90;;;;;;2269768;61;20682;-69
2021/04/29 01:09:21;0.00;0.00;0.62;0.00;0.00;0.62;3.70;3.30;;;26.50;19.80;;;;;;2269222;61;20432;-67
2021/04/29 01:11:56;0.00;0.00;0.62;0.00;0.00;0.62;3.63;2.90;;;26.50;19.80;;;;;;2269351;61;20353;-67
2021/04/29 01:14:24;0.00;0.00;0.62;0.00;0.00;0.62;3.20;2.87;;;26.40;19.80;;;;;;2269730;61;20385;-63
2021/04/29 01:16:52;0.00;0.00;0.62;0.00;0.00;0.62;4.13;3.13;;;26.40;19.80;;;;;;2268789;61;20362;-68
2021/04/29 01:19:23;0.00;0.00;0.62;0.00;0.00;0.62;3.50;3.10;;;26.40;19.80;;;;;;2269639;61;20403;-65
2021/04/29 01:21:50;0.00;0.00;0.62;0.00;0.00;0.62;4.80;2.90;;;26.40;19.90;;;;;;2269492;61;20369;-64
2021/04/29 01:24:23;0.00;0.00;0.62;0.00;0.00;0.62;3.30;3.00;;;26.40;19.90;;;;;;2269081;61;20378;-66
2021/04/29 01:26:53;0.00;0.00;0.62;0.00;0.00;0.62;3.50;3.20;;;26.40;19.90;;;;;;2269444;61;20381;-69
2021/04/29 01:29:24;0.00;0.00;0.62;0.00;0.00;0.62;3.10;2.53;;;26.40;20.40;;;;;;2269798;61;20361;-64
2021/04/29 01:31:53;0.00;0.00;0.62;0.00;0.00;0.62;3.20;2.90;;;26.40;19.90;;;;;;2269194;61;20356;-66
2021/04/29 01:34:23;0.00;0.00;0.62;0.00;0.00;0.62;3.10;2.80;;;26.40;20.00;;;;;;2269317;61;20377;-68
2021/04/29 01:36:52;0.00;0.00;0.62;0.00;0.00;0.62;3.10;2.53;;;26.30;19.90;;;;;;2269617;61;20349;-68
2021/04/29 01:39:19;0.00;0.00;0.62;0.00;0.00;0.62;3.00;2.63;;;26.30;19.90;;;;;;2269320;61;20350;-68
2021/04/29 01:41:49;0.00;0.00;0.62;0.00;0.00;0.62;2.63;2.43;;;26.30;19.90;;;;;;2269262;61;20393;-67
2021/04/29 01:44:19;0.00;0.00;0.62;0.00;0.00;0.62;2.80;2.50;;;26.30;20.00;;;;;;2269423;61;20384;-68
2021/04/29 01:46:46;0.00;0.00;0.62;0.00;0.00;0.62;3.53;2.80;;;26.30;20.10;;;;;;2269162;61;20354;-67
2021/04/29 01:49:13;0.00;0.00;0.62;0.00;0.00;0.62;2.83;2.53;;;26.30;20.10;;;;;;2269416;61;20358;-66
2021/04/29 01:51:41;0.00;0.00;0.62;0.00;0.00;0.62;3.13;2.83;;;26.30;20.10;;;;;;2269330;61;20346;-69
2021/04/29 01:54:12;0.00;0.00;0.62;0.00;0.00;0.62;3.20;2.57;;;26.30;20.20;;;;;;2269023;61;20404;-66
2021/04/29 01:56:40;0.00;0.00;0.62;0.00;0.00;0.62;2.87;2.53;;;26.30;20.70;;;;;;2269443;61;20407;-70
2021/04/29 01:59:08;0.00;0.00;0.62;0.00;0.00;0.62;3.50;2.80;;;26.30;20.10;;;;;;2268739;61;20706;-65
2021/04/29 02:01:38;0.00;0.00;0.62;0.00;0.00;0.62;2.50;2.07;;;26.30;20.00;;;;;;2268884;61;20618;-68
2021/04/29 02:04:06;0.00;0.00;0.62;0.00;0.00;0.62;3.20;2.60;;;26.30;20.00;;;;;;2269430;61;20389;-67
2021/04/29 02:06:33;0.00;0.00;0.62;0.00;0.00;0.62;2.43;2.23;;;26.20;20.00;;;;;;2269608;61;20358;-66
2021/04/29 02:09:00;0.00;0.00;0.62;0.00;0.00;0.62;2.93;2.53;;;26.20;20.00;;;;;;2270008;61;20361;-67
2021/04/29 02:11:30;0.00;0.00;0.62;0.00;0.00;0.62;2.37;1.90;;;26.20;20.10;;;;;;2270126;61;20338;-65
2021/04/29 02:13:58;0.00;0.00;0.62;0.00;0.00;0.62;2.70;2.40;;;26.20;20.10;;;;;;2269929;61;20378;-66
2021/04/29 02:16:33;0.00;0.00;0.62;0.00;0.00;0.62;4.00;2.50;;;26.20;20.20;;;;;;2269861;61;20425;-67
2021/04/29 02:19:03;0.00;0.00;0.62;0.00;0.00;0.62;2.60;2.40;;;26.20;20.30;;;;;;2270129;61;20364;-68
2021/04/29 02:21:30;0.00;0.00;0.62;0.00;0.00;0.62;2.67;2.43;;;26.20;20.30;;;;;;2269559;61;20408;-66
2021/04/29 02:23:58;0.00;0.00;0.62;0.00;0.00;0.62;3.43;2.70;;;26.20;20.30;;;;;;2270084;61;20383;-67
2021/04/29 02:26:25;0.00;0.00;0.62;0.00;0.00;0.62;4.83;2.37;;;26.10;20.30;;;;;;2270086;61;20358;-70
2021/04/29 02:28:53;0.00;0.00;0.62;0.00;0.00;0.62;2.50;2.30;;;26.10;20.30;;;;;;2269162;61;20675;-67
2021/04/29 02:31:22;0.00;0.00;0.62;0.00;0.00;0.62;2.83;2.63;;;26.10;20.40;;;;;;2270200;61;20350;-66
2021/04/29 02:33:49;0.00;0.00;0.62;0.00;0.00;0.62;2.40;2.20;;;26.10;20.40;;;;;;2269941;61;20395;-69
2021/04/29 02:36:16;0.00;0.00;0.62;0.00;0.00;0.62;3.80;2.77;;;26.10;20.40;;;;;;2269793;61;20616;-67
2021/04/29 02:38:43;0.00;0.00;0.62;0.00;0.00;0.62;2.23;2.03;;;26.10;20.50;;;;;;2270176;61;20362;-68
2021/04/29 02:41:11;0.00;0.00;0.62;0.00;0.00;0.62;2.80;2.53;;;26.10;20.50;;;;;;2269914;61;20583;-64
2021/04/29 02:43:38;0.00;0.00;0.62;0.00;0.00;0.62;2.70;2.40;;;26.10;20.50;;;;;;2269750;61;20419;-65
2021/04/29 02:46:05;0.00;0.00;0.62;0.00;0.00;0.62;2.63;2.43;;;26.10;20.60;;;;;;2270328;61;20439;-69
2021/04/29 02:48:32;0.00;0.00;0.62;0.00;0.00;0.62;3.33;2.77;;;26.10;20.50;;;;;;2270017;61;20354;-70
2021/04/29 02:51:02;0.00;0.00;0.62;0.00;0.00;0.62;2.57;2.37;;;26.10;20.70;;;;;;2269751;61;20353;-67
2021/04/29 02:53:30;0.00;0.00;0.62;0.00;0.00;0.62;2.90;2.60;;;26.10;20.60;;;;;;2270193;61;20374;-68
2021/04/29 02:55:56;0.00;0.00;0.62;0.00;0.00;0.62;3.30;2.63;;;26.10;20.70;;;;;;2269917;61;20385;-67
2021/04/29 02:58:23;0.00;0.00;0.62;0.00;0.00;0.62;3.10;1.90;;;26.10;20.60;;;;;;2269675;61;20585;-65
2021/04/29 03:00:52;0.00;0.00;0.62;0.00;0.00;0.62;2.20;2.00;;;26.00;20.60;;;;;;2270150;61;20441;-67
2021/04/29 03:03:19;0.00;0.00;0.62;0.00;0.00;0.62;2.83;2.30;;;26.00;20.70;;;;;;2269415;61;20434;-68
2021/04/29 03:05:46;0.00;0.00;0.62;0.00;0.00;0.62;3.37;2.67;;;26.00;20.80;;;;;;2269677;61;20469;-69
2021/04/29 03:08:12;0.00;0.00;0.62;0.00;0.00;0.62;2.43;2.23;;;26.10;20.90;;;;;;2270279;61;20681;-68
2021/04/29 03:10:40;0.00;0.00;0.62;0.00;0.00;0.62;3.70;2.50;;;26.00;20.80;;;;;;2269821;61;20358;-66
2021/04/29 03:13:06;0.00;0.00;0.62;0.00;0.00;0.62;3.30;2.43;;;26.00;20.70;;;;;;2269713;61;20415;-67
2021/04/29 03:15:33;0.00;0.00;0.62;0.00;0.00;0.62;2.80;2.50;;;26.00;20.80;;;;;;2270178;61;20357;-67
2021/04/29 03:17:59;0.00;0.00;0.62;0.00;0.00;0.62;3.37;2.43;;;26.00;20.80;;;;;;2269695;61;20698;-69
2021/04/29 03:20:26;0.00;0.00;0.62;0.00;0.00;0.62;2.63;2.43;;;26.00;20.80;;;;;;2269761;61;20486;-67
2021/04/29 03:22:52;0.00;0.00;0.62;0.00;0.00;0.62;2.73;2.53;;;26.00;20.80;;;;;;2269470;61;20393;-65
2021/04/29 03:25:19;0.00;0.00;0.62;0.00;0.00;0.62;3.20;2.70;;;26.00;20.80;;;;;;2269368;61;20357;-66
2021/04/29 03:27:46;0.00;0.00;0.62;0.00;0.00;0.62;2.50;2.10;;;26.00;20.80;;;;;;2270120;61;20365;-68
2021/04/29 03:30:13;0.00;0.00;0.62;0.00;0.00;0.62;3.63;2.73;;;26.00;20.90;;;;;;2269962;61;20581;-69
2021/04/29 03:32:40;0.00;0.00;0.62;0.00;0.00;0.62;2.70;2.50;;;26.00;21.00;;;;;;2269683;61;20372;-67
2021/04/29 03:35:08;0.00;0.00;0.62;0.00;0.00;0.62;2.77;2.40;;;26.00;20.90;;;;;;2270260;61;20589;-67
2021/04/29 03:37:34;0.00;0.00;0.62;0.00;0.00;0.62;2.70;2.20;;;26.00;21.00;;;;;;2269812;61;20393;-68
2021/04/29 03:40:01;0.00;0.00;0.62;0.00;0.00;0.62;2.60;2.40;;;25.90;21.00;;;;;;2269381;61;20354;-70
2021/04/29 03:42:28;0.00;0.00;0.62;0.00;0.00;0.62;3.00;2.40;;;25.90;21.00;;;;;;2269912;61;20388;-65
2021/04/29 03:44:55;0.00;0.00;0.62;0.00;0.00;0.62;2.53;2.33;;;25.90;21.00;;;;;;2269742;61;20374;-66
2021/04/29 03:47:22;0.00;0.00;0.62;0.00;0.00;0.62;3.63;2.37;;;25.90;21.00;;;;;;2269563;61;20678;-66
2021/04/29 03:49:48;0.00;0.00;0.62;0.00;0.00;0.62;2.20;2.00;;;25.90;21.60;;;;;;2269930;61;20360;-70
2021/04/29 03:52:15;0.00;0.00;0.62;0.00;0.00;0.62;2.73;2.53;;;25.90;21.60;;;;;;2269498;61;20361;-67
2021/04/29 03:54:42;0.00;0.00;0.62;0.00;0.00;0.62;2.70;2.10;;;25.90;21.10;;;;;;2269486;61;20376;-67
2021/04/29 03:57:09;0.00;0.00;0.62;0.00;0.00;0.62;2.23;2.03;;;25.90;21.10;;;;;;2269917;61;20361;-67
2021/04/29 03:59:35;0.00;0.00;0.62;0.00;0.00;0.62;3.47;2.40;;;25.90;21.20;;;;;;2269521;61;20437;-67
2021/04/29 04:02:03;0.00;0.00;0.62;0.00;0.00;0.62;3.67;2.50;;;25.90;21.20;;;;;;2269386;61;20648;-67
2021/04/29 04:04:29;0.00;0.00;0.62;0.00;0.00;0.62;3.33;2.63;;;25.90;21.20;;;;;;2270048;61;20431;-68
2021/04/29 04:06:56;0.00;0.00;0.62;0.00;0.00;0.62;2.80;2.50;;;25.90;21.20;;;;;;2269821;61;20695;-69
2021/04/29 04:09:22;0.00;0.00;0.62;0.00;0.00;0.62;2.80;2.33;;;25.90;21.20;;;;;;2269169;61;20484;-66
2021/04/29 04:11:49;0.00;0.00;0.62;0.00;0.00;0.62;3.43;3.13;;;25.90;21.20;;;;;;2269844;61;20350;-69
2021/04/29 04:14:15;0.00;0.00;0.62;0.00;0.00;0.62;3.27;2.90;;;25.80;21.20;;;;;;2269506;61;20375;-67
2021/04/29 04:16:42;0.00;0.00;0.62;0.00;0.00;0.62;3.13;2.70;;;25.80;21.20;;;;;;2269561;61;20614;-65
2021/04/29 04:19:09;0.00;0.00;0.62;0.00;0.00;0.62;3.00;2.70;;;25.80;21.30;;;;;;2269940;61;20359;-65
2021/04/29 04:21:36;0.00;0.00;0.62;0.00;0.00;0.62;2.63;2.40;;;25.80;21.30;;;;;;2269290;61;20381;-68
2021/04/29 04:24:03;0.00;0.00;0.62;0.00;0.00;0.62;4.60;3.00;;;25.80;21.30;;;;;;2269740;61;20414;-70
2021/04/29 04:26:30;0.00;0.00;0.62;0.00;0.00;0.62;4.33;2.83;;;25.80;21.30;;;;;;2269965;61;20354;-67
2021/04/29 04:28:56;0.00;0.00;0.62;0.00;0.00;0.62;2.60;2.40;;;25.80;21.30;;;;;;2269568;61;20480;-64
2021/04/29 04:31:23;0.00;0.00;0.62;0.00;0.00;0.62;3.43;3.13;;;25.80;21.40;;;;;;2269398;61;20361;-71
2021/04/29 04:33:50;0.00;0.00;0.62;0.00;0.00;0.62;3.00;2.57;;;25.80;21.40;;;;;;2269813;61;20386;-68
2021/04/29 04:36:18;0.00;0.00;0.62;0.00;0.00;0.62;3.07;2.33;;;25.80;21.40;;;;;;2269629;61;20354;-66
2021/04/29 04:38:45;0.00;0.00;0.62;0.00;0.00;0.62;3.20;2.90;;;25.80;21.40;;;;;;2269664;61;20579;-65
2021/04/29 04:41:11;0.00;0.00;0.62;0.00;0.00;0.62;3.50;3.20;;;25.80;21.30;;;;;;2269354;61;20364;-65
2021/04/29 04:43:38;0.00;0.00;0.62;0.00;0.00;0.62;3.40;3.03;;;25.80;21.30;;;;;;2269472;61;20380;-66
2021/04/29 04:46:04;0.00;0.00;0.62;0.00;0.00;0.62;3.40;2.60;;;25.80;21.20;;;;;;2269634;61;20376;-69
2021/04/29 04:48:31;0.00;0.00;0.62;0.00;0.00;0.62;2.90;2.57;;;25.80;21.30;;;;;;2269942;61;20395;-64
2021/04/29 04:50:57;0.00;0.00;0.62;0.00;0.00;0.62;3.40;2.77;;;25.70;21.30;;;;;;2269757;61;20353;-64
2021/04/29 04:53:25;0.00;0.00;0.62;0.00;0.00;0.62;2.80;2.43;;;25.70;21.40;;;;;;2269687;61;20369;-66
2021/04/29 04:55:52;0.00;0.00;0.62;0.00;0.00;0.62;2.87;2.23;;;25.70;21.40;;;;;;2269869;61;20358;-66
2021/04/29 04:58:19;0.00;0.00;0.62;0.00;0.00;0.62;4.57;2.30;;;25.70;21.40;;;;;;2269429;61;20356;-65
2021/04/29 05:00:48;0.00;0.00;0.62;0.00;0.00;0.62;3.03;2.73;;;25.70;21.40;;;;;;2269612;61;20385;-65
2021/04/29 05:03:15;0.00;0.00;0.62;0.00;0.00;0.62;2.80;2.50;;;25.70;21.50;;;;;;2269784;61;20390;-64
2021/04/29 05:05:43;0.00;0.00;0.62;0.00;0.00;0.62;2.57;2.37;;;25.70;21.50;;;;;;2269568;61;20358;-64
2021/04/29 05:08:11;0.00;0.00;0.62;0.00;0.00;0.62;3.03;2.80;;;25.70;21.50;;;;;;2269785;61;20581;-66
2021/04/29 05:10:39;0.00;0.00;0.62;0.00;0.00;0.62;3.17;2.70;;;25.70;21.50;;;;;;2269667;61;20353;-62
2021/04/29 05:13:06;0.00;0.00;0.62;0.00;0.00;0.62;4.37;2.17;;;25.70;21.50;;;;;;2269481;61;20448;-66
2021/04/29 05:15:34;0.00;0.00;0.62;0.00;0.00;0.62;2.83;2.20;;;25.70;21.50;;;;;;2269665;61;20361;-64
2021/04/29 05:18:01;0.00;0.00;0.62;0.00;0.00;0.62;3.10;2.50;;;25.70;21.50;;;;;;2269714;61;20431;-64
2021/04/29 05:20:28;0.00;0.00;0.62;0.00;0.00;0.62;2.70;2.20;;;25.70;21.50;;;;;;2269438;61;20357;-64
2021/04/29 05:22:55;0.00;0.00;0.62;0.00;0.00;0.62;2.27;1.83;;;25.70;21.50;;;;;;2269119;61;20378;-65
2021/04/29 05:25:23;0.00;0.00;0.62;0.00;0.00;0.62;2.30;2.10;;;25.70;21.40;;;;;;2269677;61;20358;-70
2021/04/29 05:27:51;0.00;0.00;0.62;0.00;0.00;0.62;2.50;1.90;;;25.70;21.50;;;;;;2269368;61;20402;-64
2021/04/29 05:30:19;0.00;0.00;0.62;0.00;0.00;0.62;2.30;2.10;;;25.70;21.50;;;;;;2269627;61;20358;-69
2021/04/29 05:32:47;0.00;0.00;0.62;0.00;0.00;0.62;2.73;2.17;;;25.70;21.50;;;;;;2269496;61;20483;-67
2021/04/29 05:35:14;0.00;0.00;0.62;0.00;0.00;0.62;3.10;2.73;;;25.70;21.50;;;;;;2269313;61;20361;-66
2021/04/29 05:37:40;0.00;0.00;0.62;0.00;0.00;0.62;2.50;2.30;;;25.70;21.50;;;;;;2269399;61;20353;-70
2021/04/29 05:40:08;0.00;0.00;0.62;0.00;0.00;0.62;5.03;3.23;;;25.70;21.60;;;;;;2269631;61;20357;-63
2021/04/29 05:42:35;0.00;0.00;0.62;0.00;0.00;0.62;3.30;2.90;;;25.70;21.60;;;;;;2269087;61;20386;-66
2021/04/29 05:45:04;0.00;0.00;0.62;0.00;0.00;0.62;3.60;2.73;;;25.70;22.20;;;;;;2269461;61;20385;-66
2021/04/29 05:47:31;0.00;0.00;0.62;0.00;0.00;0.62;4.03;3.07;;;25.70;21.70;;;;;;2269698;61;20400;-68
2021/04/29 05:49:57;0.00;0.00;0.62;0.00;0.00;0.62;3.70;3.33;;;25.70;21.70;;;;;;2269279;61;20358;-67
2021/04/29 05:52:24;0.00;0.00;0.62;0.00;0.00;0.62;3.13;2.60;;;25.70;21.70;;;;;;2268768;61;20342;-67
2021/04/29 05:54:50;0.00;0.00;0.62;0.00;0.00;0.62;2.73;2.43;;;25.70;21.70;;;;;;2269669;61;20370;-66
2021/04/29 05:57:17;0.00;0.00;0.62;0.00;0.00;0.62;3.17;2.57;;;25.70;21.70;;;;;;2269267;61;20362;-66
2021/04/29 05:59:44;0.00;0.00;0.62;0.00;0.00;0.62;2.50;2.30;;;25.70;21.70;;;;;;2269254;61;20792;-66
2021/04/29 06:02:11;0.00;0.00;0.62;0.00;0.00;0.62;2.77;2.53;;;25.70;21.70;;;;;;2269451;61;20373;-64
2021/04/29 06:04:38;0.00;0.00;0.62;0.00;0.00;0.62;4.47;3.20;;;25.70;21.70;;;;;;2269352;61;20381;-67
2021/04/29 06:07:04;0.00;0.00;0.62;0.00;0.00;0.62;3.33;3.03;;;25.70;21.80;;;;;;2269335;61;20404;-69
2021/04/29 06:09:31;0.00;0.00;0.62;0.00;0.00;0.62;3.20;2.73;;;25.70;21.80;;;;;;2269604;61;20369;-66
2021/04/29 06:12:00;0.00;0.00;0.62;0.00;0.00;0.62;3.50;3.20;;;25.70;21.80;;;;;;2269012;61;20350;-66
2021/04/29 06:14:27;0.00;0.00;0.62;0.00;0.00;0.62;3.83;2.53;;;25.70;21.80;;;;;;2269351;61;20499;-67
2021/04/29 06:16:53;0.00;0.00;0.62;0.00;0.00;0.62;2.90;2.70;;;25.70;21.80;;;;;;2269558;61;20353;-67
2021/04/29 06:19:21;0.00;0.00;0.62;0.00;0.00;0.62;2.80;2.60;;;25.70;21.80;;;;;;2269155;61;20551;-69
2021/04/29 06:21:47;0.00;0.00;0.62;0.00;0.00;0.62;4.20;2.90;;;25.60;21.70;;;;;;2269102;61;20388;-68
2021/04/29 06:24:14;0.00;0.00;0.62;0.00;0.00;0.62;3.33;3.03;;;25.60;21.80;;;;;;2269443;61;20452;-69
2021/04/29 06:26:41;0.00;0.00;0.62;0.00;0.00;0.62;3.57;3.27;;;25.60;21.80;;;;;;2268754;61;20364;-67
2021/04/29 06:29:08;0.00;0.00;0.62;0.00;0.00;0.62;4.00;3.30;;;25.60;21.80;;;;;;2269453;61;20365;-70
2021/04/29 06:31:37;0.00;0.00;0.62;0.00;0.00;0.62;4.60;3.67;;;25.60;21.80;;;;;;2269502;61;20551;-68
2021/04/29 06:34:04;0.00;0.00;0.62;0.00;0.00;0.62;3.03;2.83;;;25.60;21.80;;;;;;2269433;61;20398;-67
2021/04/29 06:36:31;0.00;0.00;0.62;0.00;0.00;0.62;2.83;2.50;;;25.60;21.80;;;;;;2269511;61;20649;-65
2021/04/29 06:38:58;0.00;0.00;0.62;0.00;0.00;0.62;3.77;3.43;;;25.60;21.80;;;;;;2269505;61;20713;-65
2021/04/29 06:41:25;0.00;0.00;0.62;0.00;0.00;0.62;3.77;3.10;;;25.60;21.80;;;;;;2269139;61;20362;-65
2021/04/29 06:43:51;0.00;0.00;0.62;0.00;0.00;0.62;3.60;2.90;;;25.60;21.80;;;;;;2269484;61;20454;-69
2021/04/29 06:46:18;0.00;0.00;0.62;0.00;0.00;0.62;3.50;3.20;;;25.60;21.80;;;;;;2269690;61;20354;-68
2021/04/29 06:48:45;0.00;0.00;0.62;0.00;0.00;0.62;3.90;3.20;;;25.60;21.80;;;;;;2269243;61;20346;-66
2021/04/29 06:51:13;0.00;0.00;0.62;0.00;0.00;0.62;3.67;3.37;;;25.50;21.80;;;;;;2269411;61;20357;-69
2021/04/29 06:53:41;0.00;0.00;0.62;0.00;0.00;0.62;3.83;3.43;;;25.50;21.90;;;;;;2269849;61;20575;-68
2021/04/29 06:56:07;0.00;0.00;0.62;0.00;0.00;0.62;3.40;3.10;;;25.50;21.90;;;;;;2269898;61;20662;-69
2021/04/29 06:58:34;0.00;0.00;0.62;0.00;0.00;0.62;4.00;3.20;;;25.50;21.90;;;;;;2270157;61;20753;-64
2021/04/29 07:01:01;0.00;0.00;0.62;0.00;0.00;0.62;3.80;3.43;;;25.50;21.90;;;;;;2270084;61;20586;-67
2021/04/29 07:03:28;0.00;0.00;0.62;0.00;0.00;0.62;3.30;3.00;;;25.50;21.90;;;;;;2269859;61;20733;-65
2021/04/29 07:05:55;0.00;0.00;0.62;0.00;0.00;0.62;3.73;3.30;;;25.50;21.90;;;;;;2270166;61;20354;-67
2021/04/29 07:08:21;0.00;0.00;0.62;0.00;0.00;0.62;3.80;3.33;;;25.50;22.00;;;;;;2270232;61;20425;-66
2021/04/29 07:10:49;0.00;0.00;0.62;0.00;0.00;0.62;4.30;3.70;;;25.50;21.90;;;;;;2269787;61;20353;-68
2021/04/29 07:13:16;0.00;0.00;0.62;0.00;0.00;0.62;3.27;2.97;;;25.50;21.90;;;;;;2270225;61;20385;-67
2021/04/29 07:15:43;0.00;0.00;0.62;0.00;0.00;0.62;4.43;3.63;;;25.50;22.00;;;;;;2270106;61;20400;-68
2021/04/29 07:18:11;0.00;0.00;0.62;0.00;0.00;0.62;5.07;3.67;;;25.50;22.00;;;;;;2269862;61;20686;-69
2021/04/29 07:20:37;0.00;0.00;0.62;0.00;0.00;0.62;3.80;3.50;;;25.50;22.00;;;;;;2270076;61;20731;-68
2021/04/29 07:23:04;0.00;0.00;0.62;0.00;0.00;0.62;4.37;3.97;;;25.50;22.00;;;;;;2269989;61;20396;-67
2021/04/29 07:25:31;0.00;0.00;0.62;0.00;0.00;0.62;6.90;4.20;;;25.50;22.00;;;;;;2270030;61;20395;-67
2021/04/29 07:27:59;0.00;0.00;0.62;0.00;0.00;0.62;4.70;4.30;;;25.50;22.00;;;;;;2270214;61;20362;-68
2021/04/29 07:30:26;0.00;0.00;0.62;0.00;0.00;0.62;6.10;4.37;;;25.50;22.00;;;;;;2269954;61;20373;-68
2021/04/29 07:32:53;0.00;0.00;0.62;0.00;0.00;0.62;4.90;4.40;;;25.50;22.50;;;;;;2269824;61;20365;-69
2021/04/29 07:35:22;0.00;0.00;0.62;0.00;0.00;0.62;5.00;4.50;;;25.50;22.00;;;;;;2270037;61;20478;-67
2021/04/29 07:37:49;0.00;0.00;0.62;0.00;0.00;0.62;5.70;5.17;;;25.50;22.00;;;;;;2269911;61;20354;-69
2021/04/29 07:40:16;0.00;0.00;0.62;0.00;0.00;0.62;6.60;4.90;;;25.40;21.90;;;;;;2269880;61;20721;-67
2021/04/29 07:42:43;0.00;0.00;0.62;0.00;0.00;0.62;5.30;4.90;;;25.40;22.00;;;;;;2269934;61;20452;-67
2021/04/29 07:45:12;0.00;0.00;0.62;0.00;0.00;0.62;7.20;4.87;;;25.40;22.00;;;;;;2269940;61;20361;-66
2021/04/29 07:47:39;0.00;0.00;0.62;0.00;0.00;0.62;5.57;4.70;;;25.40;22.00;;;;;;2269773;61;20357;-68
2021/04/29 07:50:08;0.00;0.00;0.62;0.00;0.00;0.62;5.87;4.97;;;25.40;22.00;;;;;;2270155;61;20362;-66
2021/04/29 07:52:35;0.00;0.00;0.62;0.00;0.00;0.62;7.03;5.20;;;25.40;22.00;;;;;;2269968;61;20356;-73
2021/04/29 07:55:03;0.00;0.00;0.62;0.00;0.00;0.62;5.73;5.13;;;25.40;22.00;;;;;;2269721;61;20377;-67
2021/04/29 07:57:30;0.00;0.00;0.62;0.00;0.00;0.62;5.43;4.90;;;25.40;22.00;;;;;;2269962;61;20679;-66
2021/04/29 07:59:56;0.00;0.00;0.62;0.00;0.00;0.62;6.27;5.77;;;25.40;22.60;;;;;;2269976;61;20357;-69
2021/04/29 08:02:24;0.00;0.00;0.62;0.00;0.00;0.62;5.50;4.97;;;25.40;22.00;;;;;;2269591;61;20377;-67
2021/04/29 08:04:51;0.00;0.00;0.62;0.00;0.00;0.62;6.37;5.77;;;25.40;22.00;;;;;;2270003;61;20421;-68
2021/04/29 08:07:17;0.00;0.00;0.62;0.00;0.00;0.62;5.87;4.97;;;25.40;22.00;;;;;;2269994;61;20365;-68
2021/04/29 08:09:44;0.00;0.00;0.62;0.00;0.00;0.62;7.17;6.37;;;25.40;22.00;;;;;;2269972;61;20354;-69
2021/04/29 08:12:10;0.00;0.00;0.62;0.00;0.00;0.62;7.07;6.37;;;25.40;22.00;;;;;;2269820;61;20350;-64
2021/04/29 08:14:37;0.00;0.00;0.62;0.00;0.00;0.62;5.83;5.20;;;25.40;22.00;;;;;;2269943;61;20369;-69
2021/04/29 08:17:04;0.00;0.00;0.62;0.00;0.00;0.62;9.60;5.20;;;25.40;22.10;;;;;;2269253;61;20362;-66
2021/04/29 08:19:31;0.00;0.00;0.62;0.00;0.00;0.62;7.60;6.17;;;25.40;22.10;;;;;;2270002;61;20350;-68
2021/04/29 08:21:58;0.00;0.00;0.62;0.00;0.00;0.62;6.60;5.90;;;25.40;22.10;;;;;;2269711;61;20435;-65
2021/04/29 08:24:25;0.00;0.00;0.62;0.00;0.00;0.62;6.30;5.70;;;25.40;22.20;;;;;;2269664;61;20508;-68
2021/04/29 08:26:51;0.00;0.00;0.62;0.00;0.00;0.62;6.73;6.07;;;25.40;22.70;;;;;;2270009;61;20358;-68
2021/04/29 08:29:18;0.00;0.00;0.62;0.00;0.00;0.62;8.80;6.60;;;25.40;22.20;;;;;;2269862;61;20365;-69
2021/04/29 08:31:44;0.00;0.00;0.62;0.00;0.00;0.62;6.60;5.90;;;25.30;22.10;;;;;;2269587;61;20354;-66
2021/04/29 08:34:11;0.00;0.00;0.62;0.00;0.00;0.62;6.00;5.20;;;25.40;22.20;;;;;;2269909;61;20472;-70
2021/04/29 08:36:39;0.00;0.00;0.62;0.00;0.00;0.62;6.33;5.73;;;25.30;22.20;;;;;;2269737;61;20353;-69
2021/04/29 08:39:06;0.00;0.00;0.62;0.00;0.00;0.62;6.10;5.43;;;25.30;22.20;;;;;;2269640;61;20732;-67
2021/04/29 08:41:33;0.00;0.00;0.62;0.00;0.00;0.62;7.77;6.37;;;25.30;22.10;;;;;;2269805;61;20376;-69
2021/04/29 08:44:00;0.00;0.00;0.62;0.00;0.00;0.62;7.40;6.40;;;25.30;22.20;;;;;;2269726;61;20421;-67
2021/04/29 08:46:27;0.00;0.00;0.62;0.00;0.00;0.62;5.97;5.40;;;25.30;22.30;;;;;;2269603;61;20403;-66
2021/04/29 08:48:56;0.00;0.00;0.62;0.00;0.00;0.62;5.60;5.00;;;25.30;22.30;;;;;;2270029;61;20353;-68
2021/04/29 08:51:24;0.00;0.00;0.62;0.00;0.00;0.62;5.47;4.80;;;25.30;22.30;;;;;;2269657;61;20357;-68
2021/04/29 08:53:53;0.00;0.00;0.62;0.00;0.00;0.62;5.70;5.20;;;25.30;22.30;;;;;;2269783;61;20714;-66
2021/04/29 08:56:23;0.00;0.00;0.62;0.00;0.00;0.62;5.80;5.30;;;25.30;22.40;;;;;;2269400;61;20713;-71
2021/04/29 08:58:51;0.00;0.00;0.62;0.00;0.00;0.62;5.17;4.77;;;25.30;22.30;;;;;;2269779;61;20369;-68
2021/04/29 09:01:17;0.00;0.00;0.62;0.00;0.00;0.62;6.00;5.50;;;25.30;22.30;;;;;;2269441;61;20600;-65
2021/04/29 09:03:44;0.00;0.00;0.62;0.00;0.00;0.62;5.10;4.60;;;25.30;22.40;;;;;;2270115;61;20389;-66
2021/04/29 09:06:11;0.00;0.00;0.62;0.00;0.00;0.62;5.50;4.97;;;25.30;22.40;;;;;;2269703;61;20721;-67
2021/04/29 09:08:39;0.00;0.00;0.62;0.00;0.00;0.62;5.27;4.77;;;25.40;22.50;;;;;;2269484;61;20353;-66
2021/04/29 09:11:13;0.00;0.00;0.62;0.00;0.00;0.62;6.73;6.13;;;25.40;22.50;;;;;;2269840;61;20384;-70
2021/04/29 09:13:41;0.00;0.00;0.62;0.00;0.00;0.62;5.77;5.17;;;25.40;22.50;;;;;;2269692;61;20636;-71
2021/04/29 09:16:11;0.00;0.00;0.62;0.00;0.00;0.62;5.37;4.87;;;25.40;22.50;;;;;;2269250;61;20368;-69
2021/04/29 09:18:42;0.00;0.00;0.62;0.00;0.00;0.62;5.90;5.40;;;25.40;22.50;;;;;;2269863;61;20705;-67
2021/04/29 09:21:13;0.00;0.00;0.62;0.00;0.00;0.62;5.43;4.93;;;25.40;22.50;;;;;;2269539;61;20492;-70
2021/04/29 09:23:42;0.00;0.00;0.62;0.00;0.00;0.62;6.63;5.23;;;25.40;22.50;;;;;;2269518;61;20386;-67
2021/04/29 09:26:13;0.00;0.00;0.62;0.00;0.00;0.62;5.27;4.77;;;25.40;22.50;;;;;;2269373;61;20357;-67
2021/04/29 09:28:43;0.00;0.00;0.62;0.00;0.00;0.62;6.07;5.47;;;25.40;22.50;;;;;;2269700;61;20760;-65
2021/04/29 09:31:12;0.00;0.00;0.62;0.00;0.00;0.62;4.97;4.47;;;25.40;22.50;;;;;;2269350;61;20376;-69
2021/04/29 09:33:41;0.00;0.00;0.62;0.00;0.00;0.62;5.47;4.90;;;25.40;22.50;;;;;;2269856;61;20591;-67
2021/04/29 09:36:20;0.00;0.00;0.62;0.00;0.00;0.62;5.33;4.73;;;25.40;22.50;;;;;;2269583;61;20403;-70
2021/04/29 09:38:54;0.00;0.00;0.62;0.00;0.00;0.62;5.23;4.63;;;25.30;22.40;;;;;;2269483;61;20679;-69
2021/04/29 09:41:25;0.00;0.00;0.62;0.00;0.00;0.62;5.70;5.17;;;25.40;22.50;;;;;;2269591;61;20363;-68